sensor_id;sensor_type;location;lat;lon;timestamp;temperature;humidity
9118;DHT22;4594;50.994;7.126;2023-06-04T00:01:21;16.90;24.90
9118;DHT22;4594;50.994;7.126;2023-06-04T00:03:47;16.80;24.80
9118;DHT22;4594;50.994;7.126;2023-06-04T00:06:13;16.70;24.80
9118;DHT22;4594;50.994;7.126;2023-06-04T00:08:38;16.80;24.90
9118;DHT22;4594;50.994;7.126;2023-06-04T00:11:04;16.70;24.90
9118;DHT22;4594;50.994;7.126;2023-06-04T00:13:30;16.70;24.90
9118;DHT22;4594;50.994;7.126;2023-06-04T00:15:56;16.70;24.90
9118;DHT22;4594;50.994;7.126;2023-06-04T00:18:21;16.70;24.90
9118;DHT22;4594;50.994;7.126;2023-06-04T00:20:47;16.70;24.90
9118;DHT22;4594;50.994;7.126;2023-06-04T00:23:13;16.60;24.90
9118;DHT22;4594;50.994;7.126;2023-06-04T00:25:38;16.60;24.90
9118;DHT22;4594;50.994;7.126;2023-06-04T00:28:04;16.60;24.90
9118;DHT22;4594;50.994;7.126;2023-06-04T00:30:30;16.50;24.80
9118;DHT22;4594;50.994;7.126;2023-06-04T00:32:56;16.50;24.90
9118;DHT22;4594;50.994;7.126;2023-06-04T00:35:22;16.50;24.90
9118;DHT22;4594;50.994;7.126;2023-06-04T00:37:47;16.40;24.90
9118;DHT22;4594;50.994;7.126;2023-06-04T00:40:13;16.40;24.90
9118;DHT22;4594;50.994;7.126;2023-06-04T00:42:40;16.50;25.00
9118;DHT22;4594;50.994;7.126;2023-06-04T00:45:06;16.30;24.90
9118;DHT22;4594;50.994;7.126;2023-06-04T00:47:33;16.30;24.90
9118;DHT22;4594;50.994;7.126;2023-06-04T00:49:59;16.30;24.90
9118;DHT22;4594;50.994;7.126;2023-06-04T00:52:25;16.20;24.90
9118;DHT22;4594;50.994;7.126;2023-06-04T00:54:51;16.10;24.90
9118;DHT22;4594;50.994;7.126;2023-06-04T00:57:20;16.10;24.90
9118;DHT22;4594;50.994;7.126;2023-06-04T00:59:47;16.10;24.90
9118;DHT22;4594;50.994;7.126;2023-06-04T01:02:19;16.00;24.90
9118;DHT22;4594;50.994;7.126;2023-06-04T01:07:42;15.90;25.00
9118;DHT22;4594;50.994;7.126;2023-06-04T01:10:12;15.90;24.90
9118;DHT22;4594;50.994;7.126;2023-06-04T01:12:42;15.80;24.90
9118;DHT22;4594;50.994;7.126;2023-06-04T01:15:09;15.80;25.00
9118;DHT22;4594;50.994;7.126;2023-06-04T01:17:40;15.70;24.90
9118;DHT22;4594;50.994;7.126;2023-06-04T01:20:26;15.70;25.10
9118;DHT22;4594;50.994;7.126;2023-06-04T01:26:03;15.50;24.90
9118;DHT22;4594;50.994;7.126;2023-06-04T01:28:32;15.50;24.90
9118;DHT22;4594;50.994;7.126;2023-06-04T01:31:00;15.50;25.00
9118;DHT22;4594;50.994;7.126;2023-06-04T01:33:27;15.30;25.00
9118;DHT22;4594;50.994;7.126;2023-06-04T01:35:53;15.20;25.00
9118;DHT22;4594;50.994;7.126;2023-06-04T01:38:19;15.20;25.00
9118;DHT22;4594;50.994;7.126;2023-06-04T01:40:45;15.10;25.00
9118;DHT22;4594;50.994;7.126;2023-06-04T01:43:12;15.10;25.00
9118;DHT22;4594;50.994;7.126;2023-06-04T01:45:38;15.00;25.00
9118;DHT22;4594;50.994;7.126;2023-06-04T01:48:05;15.00;25.10
9118;DHT22;4594;50.994;7.126;2023-06-04T01:50:32;15.00;25.10
9118;DHT22;4594;50.994;7.126;2023-06-04T01:52:58;14.90;25.10
9118;DHT22;4594;50.994;7.126;2023-06-04T01:55:24;14.90;25.10
9118;DHT22;4594;50.994;7.126;2023-06-04T01:57:51;14.80;25.10
9118;DHT22;4594;50.994;7.126;2023-06-04T02:00:17;14.80;25.20
9118;DHT22;4594;50.994;7.126;2023-06-04T02:02:45;14.70;25.10
9118;DHT22;4594;50.994;7.126;2023-06-04T02:05:11;14.60;25.20
9118;DHT22;4594;50.994;7.126;2023-06-04T02:07:39;14.60;25.20
9118;DHT22;4594;50.994;7.126;2023-06-04T02:10:14;14.60;25.30
9118;DHT22;4594;50.994;7.126;2023-06-04T02:12:54;14.50;25.30
9118;DHT22;4594;50.994;7.126;2023-06-04T02:15:23;14.40;25.40
9118;DHT22;4594;50.994;7.126;2023-06-04T02:17:50;14.40;25.30
9118;DHT22;4594;50.994;7.126;2023-06-04T02:20:17;14.30;25.20
9118;DHT22;4594;50.994;7.126;2023-06-04T02:22:43;14.20;25.30
9118;DHT22;4594;50.994;7.126;2023-06-04T02:25:08;14.20;25.40
9118;DHT22;4594;50.994;7.126;2023-06-04T02:27:34;14.10;25.30
9118;DHT22;4594;50.994;7.126;2023-06-04T02:30:01;14.10;25.40
9118;DHT22;4594;50.994;7.126;2023-06-04T02:32:27;14.00;25.30
9118;DHT22;4594;50.994;7.126;2023-06-04T02:34:54;13.90;25.30
9118;DHT22;4594;50.994;7.126;2023-06-04T02:37:21;13.90;25.40
9118;DHT22;4594;50.994;7.126;2023-06-04T02:39:47;13.90;25.40
9118;DHT22;4594;50.994;7.126;2023-06-04T02:42:13;13.90;25.50
9118;DHT22;4594;50.994;7.126;2023-06-04T02:44:39;13.80;25.50
9118;DHT22;4594;50.994;7.126;2023-06-04T02:47:05;13.70;25.50
9118;DHT22;4594;50.994;7.126;2023-06-04T02:49:31;13.60;25.40
9118;DHT22;4594;50.994;7.126;2023-06-04T02:51:57;13.60;25.50
9118;DHT22;4594;50.994;7.126;2023-06-04T02:54:22;13.50;25.50
9118;DHT22;4594;50.994;7.126;2023-06-04T02:56:48;13.50;25.50
9118;DHT22;4594;50.994;7.126;2023-06-04T02:59:14;13.40;25.50
9118;DHT22;4594;50.994;7.126;2023-06-04T03:01:40;13.40;25.50
9118;DHT22;4594;50.994;7.126;2023-06-04T03:04:06;13.30;25.50
9118;DHT22;4594;50.994;7.126;2023-06-04T03:06:35;13.30;25.50
9118;DHT22;4594;50.994;7.126;2023-06-04T03:09:04;13.40;25.70
9118;DHT22;4594;50.994;7.126;2023-06-04T03:11:30;13.20;25.60
9118;DHT22;4594;50.994;7.126;2023-06-04T03:13:56;13.10;25.60
9118;DHT22;4594;50.994;7.126;2023-06-04T03:16:22;13.10;25.60
9118;DHT22;4594;50.994;7.126;2023-06-04T03:18:47;13.10;25.70
9118;DHT22;4594;50.994;7.126;2023-06-04T03:21:13;13.00;25.70
9118;DHT22;4594;50.994;7.126;2023-06-04T03:23:40;13.00;25.70
9118;DHT22;4594;50.994;7.126;2023-06-04T03:26:05;13.00;25.70
9118;DHT22;4594;50.994;7.126;2023-06-04T03:28:32;13.00;25.70
9118;DHT22;4594;50.994;7.126;2023-06-04T03:30:59;13.00;25.70
9118;DHT22;4594;50.994;7.126;2023-06-04T03:33:25;13.00;25.70
9118;DHT22;4594;50.994;7.126;2023-06-04T03:35:51;13.00;25.80
9118;DHT22;4594;50.994;7.126;2023-06-04T03:38:18;13.00;25.80
9118;DHT22;4594;50.994;7.126;2023-06-04T03:40:45;13.00;25.80
9118;DHT22;4594;50.994;7.126;2023-06-04T03:43:11;13.10;26.10
9118;DHT22;4594;50.994;7.126;2023-06-04T03:45:37;13.10;25.80
9118;DHT22;4594;50.994;7.126;2023-06-04T03:48:03;13.10;25.80
9118;DHT22;4594;50.994;7.126;2023-06-04T03:50:29;13.10;25.80
9118;DHT22;4594;50.994;7.126;2023-06-04T03:52:55;13.20;25.90
9118;DHT22;4594;50.994;7.126;2023-06-04T03:55:21;13.20;25.90
9118;DHT22;4594;50.994;7.126;2023-06-04T03:57:48;13.20;25.90
9118;DHT22;4594;50.994;7.126;2023-06-04T04:00:14;13.30;25.90
9118;DHT22;4594;50.994;7.126;2023-06-04T04:02:40;13.30;25.90
9118;DHT22;4594;50.994;7.126;2023-06-04T04:05:07;13.30;26.00
9118;DHT22;4594;50.994;7.126;2023-06-04T04:07:32;13.40;26.30
9118;DHT22;4594;50.994;7.126;2023-06-04T04:09:58;13.40;26.00
9118;DHT22;4594;50.994;7.126;2023-06-04T04:12:24;13.40;26.00
9118;DHT22;4594;50.994;7.126;2023-06-04T04:14:49;13.50;26.10
9118;DHT22;4594;50.994;7.126;2023-06-04T04:17:15;13.60;26.10
9118;DHT22;4594;50.994;7.126;2023-06-04T04:19:41;13.60;26.10
9118;DHT22;4594;50.994;7.126;2023-06-04T04:22:07;13.70;26.20
9118;DHT22;4594;50.994;7.126;2023-06-04T04:24:34;13.80;26.20
9118;DHT22;4594;50.994;7.126;2023-06-04T04:27:02;13.80;26.20
9118;DHT22;4594;50.994;7.126;2023-06-04T04:29:29;13.80;26.20
9118;DHT22;4594;50.994;7.126;2023-06-04T04:31:58;13.90;26.20
9118;DHT22;4594;50.994;7.126;2023-06-04T04:34:28;13.90;26.30
9118;DHT22;4594;50.994;7.126;2023-06-04T04:36:54;14.00;26.30
9118;DHT22;4594;50.994;7.126;2023-06-04T04:39:23;14.10;26.40
9118;DHT22;4594;50.994;7.126;2023-06-04T04:41:50;14.10;26.40
9118;DHT22;4594;50.994;7.126;2023-06-04T04:44:17;14.20;26.50
9118;DHT22;4594;50.994;7.126;2023-06-04T04:46:43;14.30;26.50
9118;DHT22;4594;50.994;7.126;2023-06-04T04:49:09;14.40;26.60
9118;DHT22;4594;50.994;7.126;2023-06-04T04:51:35;14.60;26.70
9118;DHT22;4594;50.994;7.126;2023-06-04T04:54:02;14.70;26.70
9118;DHT22;4594;50.994;7.126;2023-06-04T04:56:28;14.90;26.80
9118;DHT22;4594;50.994;7.126;2023-06-04T04:58:57;15.00;26.90
9118;DHT22;4594;50.994;7.126;2023-06-04T05:01:23;15.20;27.10
9118;DHT22;4594;50.994;7.126;2023-06-04T05:03:50;15.40;27.10
9118;DHT22;4594;50.994;7.126;2023-06-04T05:06:16;15.60;27.20
9118;DHT22;4594;50.994;7.126;2023-06-04T05:08:42;15.90;27.40
9118;DHT22;4594;50.994;7.126;2023-06-04T05:11:08;16.20;27.50
9118;DHT22;4594;50.994;7.126;2023-06-04T05:13:34;16.50;27.50
9118;DHT22;4594;50.994;7.126;2023-06-04T05:16:01;16.90;27.70
9118;DHT22;4594;50.994;7.126;2023-06-04T05:18:32;17.30;27.80
9118;DHT22;4594;50.994;7.126;2023-06-04T05:21:06;17.70;27.90
9118;DHT22;4594;50.994;7.126;2023-06-04T05:23:32;18.10;27.90
9118;DHT22;4594;50.994;7.126;2023-06-04T05:26:00;18.50;27.90
9118;DHT22;4594;50.994;7.126;2023-06-04T05:28:30;18.90;28.00
9118;DHT22;4594;50.994;7.126;2023-06-04T05:30:58;19.20;28.00
9118;DHT22;4594;50.994;7.126;2023-06-04T05:33:27;19.50;28.00
9118;DHT22;4594;50.994;7.126;2023-06-04T05:35:53;19.90;28.00
9118;DHT22;4594;50.994;7.126;2023-06-04T05:38:23;20.30;28.20
9118;DHT22;4594;50.994;7.126;2023-06-04T05:40:56;20.50;28.10
9118;DHT22;4594;50.994;7.126;2023-06-04T05:43:22;20.90;28.20
9118;DHT22;4594;50.994;7.126;2023-06-04T05:45:48;21.20;28.20
9118;DHT22;4594;50.994;7.126;2023-06-04T05:48:14;21.50;28.20
9118;DHT22;4594;50.994;7.126;2023-06-04T05:50:40;22.00;28.40
9118;DHT22;4594;50.994;7.126;2023-06-04T05:53:06;22.20;28.40
9118;DHT22;4594;50.994;7.126;2023-06-04T05:55:32;22.60;28.40
9118;DHT22;4594;50.994;7.126;2023-06-04T05:57:58;22.90;28.60
9118;DHT22;4594;50.994;7.126;2023-06-04T06:00:23;23.30;28.50
9118;DHT22;4594;50.994;7.126;2023-06-04T06:02:50;23.60;28.60
9118;DHT22;4594;50.994;7.126;2023-06-04T06:05:17;24.00;28.60
9118;DHT22;4594;50.994;7.126;2023-06-04T06:07:44;24.40;28.80
9118;DHT22;4594;50.994;7.126;2023-06-04T06:10:13;24.90;28.90
9118;DHT22;4594;50.994;7.126;2023-06-04T06:12:39;25.30;29.00
9118;DHT22;4594;50.994;7.126;2023-06-04T06:15:05;25.70;28.80
9118;DHT22;4594;50.994;7.126;2023-06-04T06:17:32;26.10;28.70
9118;DHT22;4594;50.994;7.126;2023-06-04T06:19:58;26.60;28.80
9118;DHT22;4594;50.994;7.126;2023-06-04T06:22:24;26.90;28.60
9118;DHT22;4594;50.994;7.126;2023-06-04T06:24:50;27.30;28.60
9118;DHT22;4594;50.994;7.126;2023-06-04T06:27:17;27.60;28.50
9118;DHT22;4594;50.994;7.126;2023-06-04T06:29:43;28.00;28.50
9118;DHT22;4594;50.994;7.126;2023-06-04T06:32:10;28.30;28.40
9118;DHT22;4594;50.994;7.126;2023-06-04T06:34:36;28.60;28.30
9118;DHT22;4594;50.994;7.126;2023-06-04T06:37:03;29.00;28.40
9118;DHT22;4594;50.994;7.126;2023-06-04T06:39:29;29.30;28.40
9118;DHT22;4594;50.994;7.126;2023-06-04T06:41:55;29.60;28.30
9118;DHT22;4594;50.994;7.126;2023-06-04T06:44:21;29.90;28.30
9118;DHT22;4594;50.994;7.126;2023-06-04T06:46:47;30.30;28.30
9118;DHT22;4594;50.994;7.126;2023-06-04T06:49:14;30.60;28.30
9118;DHT22;4594;50.994;7.126;2023-06-04T06:51:40;31.00;28.30
9118;DHT22;4594;50.994;7.126;2023-06-04T06:54:08;31.40;28.20
9118;DHT22;4594;50.994;7.126;2023-06-04T06:56:35;31.70;28.00
9118;DHT22;4594;50.994;7.126;2023-06-04T06:59:01;32.00;28.20
9118;DHT22;4594;50.994;7.126;2023-06-04T07:01:27;32.30;28.10
9118;DHT22;4594;50.994;7.126;2023-06-04T07:03:52;32.60;28.00
9118;DHT22;4594;50.994;7.126;2023-06-04T07:06:18;32.90;28.00
9118;DHT22;4594;50.994;7.126;2023-06-04T07:08:44;33.10;27.80
9118;DHT22;4594;50.994;7.126;2023-06-04T07:11:09;33.40;27.70
9118;DHT22;4594;50.994;7.126;2023-06-04T07:13:39;33.60;27.60
9118;DHT22;4594;50.994;7.126;2023-06-04T07:16:05;33.80;27.50
9118;DHT22;4594;50.994;7.126;2023-06-04T07:18:30;34.00;27.40
9118;DHT22;4594;50.994;7.126;2023-06-04T07:20:56;34.10;27.30
9118;DHT22;4594;50.994;7.126;2023-06-04T07:23:22;34.30;27.20
9118;DHT22;4594;50.994;7.126;2023-06-04T07:25:47;34.40;27.20
9118;DHT22;4594;50.994;7.126;2023-06-04T07:28:13;34.40;27.10
9118;DHT22;4594;50.994;7.126;2023-06-04T07:30:39;34.50;27.10
9118;DHT22;4594;50.994;7.126;2023-06-04T07:33:05;34.70;27.20
9118;DHT22;4594;50.994;7.126;2023-06-04T07:35:31;34.80;27.10
9118;DHT22;4594;50.994;7.126;2023-06-04T07:37:57;35.00;27.10
9118;DHT22;4594;50.994;7.126;2023-06-04T07:40:23;35.10;27.30
9118;DHT22;4594;50.994;7.126;2023-06-04T07:42:49;35.20;27.10
9118;DHT22;4594;50.994;7.126;2023-06-04T07:45:15;35.30;27.00
9118;DHT22;4594;50.994;7.126;2023-06-04T07:47:41;35.50;27.10
9118;DHT22;4594;50.994;7.126;2023-06-04T07:50:08;35.70;26.80
9118;DHT22;4594;50.994;7.126;2023-06-04T07:52:34;36.00;26.80
9118;DHT22;4594;50.994;7.126;2023-06-04T07:55:00;36.10;26.70
9118;DHT22;4594;50.994;7.126;2023-06-04T07:57:26;36.20;26.60
9118;DHT22;4594;50.994;7.126;2023-06-04T07:59:52;36.30;26.60
9118;DHT22;4594;50.994;7.126;2023-06-04T08:02:18;36.40;26.50
9118;DHT22;4594;50.994;7.126;2023-06-04T08:04:44;36.40;26.10
9118;DHT22;4594;50.994;7.126;2023-06-04T08:07:11;36.40;26.00
9118;DHT22;4594;50.994;7.126;2023-06-04T08:09:38;36.30;26.10
9118;DHT22;4594;50.994;7.126;2023-06-04T08:12:03;36.40;26.10
9118;DHT22;4594;50.994;7.126;2023-06-04T08:14:29;36.40;26.00
9118;DHT22;4594;50.994;7.126;2023-06-04T08:16:57;36.40;25.80
9118;DHT22;4594;50.994;7.126;2023-06-04T08:19:23;36.40;25.80
9118;DHT22;4594;50.994;7.126;2023-06-04T08:21:49;36.30;25.80
9118;DHT22;4594;50.994;7.126;2023-06-04T08:24:15;36.30;25.80
9118;DHT22;4594;50.994;7.126;2023-06-04T08:26:41;36.40;25.90
9118;DHT22;4594;50.994;7.126;2023-06-04T08:29:07;36.40;25.80
9118;DHT22;4594;50.994;7.126;2023-06-04T08:31:33;36.50;25.80
9118;DHT22;4594;50.994;7.126;2023-06-04T08:33:59;36.70;25.70
9118;DHT22;4594;50.994;7.126;2023-06-04T08:36:24;36.80;25.80
9118;DHT22;4594;50.994;7.126;2023-06-04T08:38:50;36.80;25.60
9118;DHT22;4594;50.994;7.126;2023-06-04T08:41:35;36.90;25.60
9118;DHT22;4594;50.994;7.126;2023-06-04T08:44:09;37.00;25.20
9118;DHT22;4594;50.994;7.126;2023-06-04T08:46:38;37.00;25.40
9118;DHT22;4594;50.994;7.126;2023-06-04T08:49:06;37.10;25.30
9118;DHT22;4594;50.994;7.126;2023-06-04T08:51:34;37.20;25.30
9118;DHT22;4594;50.994;7.126;2023-06-04T08:54:04;37.20;25.40
9118;DHT22;4594;50.994;7.126;2023-06-04T08:56:31;37.40;25.30
9118;DHT22;4594;50.994;7.126;2023-06-04T08:59:01;37.40;25.20
9118;DHT22;4594;50.994;7.126;2023-06-04T09:01:33;37.40;25.00
9118;DHT22;4594;50.994;7.126;2023-06-04T09:04:04;37.50;25.20
9118;DHT22;4594;50.994;7.126;2023-06-04T09:06:32;37.60;25.00
9118;DHT22;4594;50.994;7.126;2023-06-04T09:09:00;37.50;24.80
9118;DHT22;4594;50.994;7.126;2023-06-04T09:11:52;37.50;24.80
9118;DHT22;4594;50.994;7.126;2023-06-04T09:14:19;37.40;24.60
9118;DHT22;4594;50.994;7.126;2023-06-04T09:16:49;37.30;24.70
9118;DHT22;4594;50.994;7.126;2023-06-04T09:19:18;37.20;24.60
9118;DHT22;4594;50.994;7.126;2023-06-04T09:22:00;37.20;24.60
9118;DHT22;4594;50.994;7.126;2023-06-04T09:24:46;37.20;24.50
9118;DHT22;4594;50.994;7.126;2023-06-04T09:27:20;37.40;24.50
9118;DHT22;4594;50.994;7.126;2023-06-04T09:29:55;37.40;24.50
9118;DHT22;4594;50.994;7.126;2023-06-04T09:32:25;37.40;24.40
9118;DHT22;4594;50.994;7.126;2023-06-04T09:34:55;37.50;24.50
9118;DHT22;4594;50.994;7.126;2023-06-04T09:37:22;37.50;24.40
9118;DHT22;4594;50.994;7.126;2023-06-04T09:39:57;37.50;24.30
9118;DHT22;4594;50.994;7.126;2023-06-04T09:42:23;37.50;24.20
9118;DHT22;4594;50.994;7.126;2023-06-04T09:44:49;37.40;24.30
9118;DHT22;4594;50.994;7.126;2023-06-04T09:47:15;37.50;24.40
9118;DHT22;4594;50.994;7.126;2023-06-04T09:49:48;37.60;24.40
9118;DHT22;4594;50.994;7.126;2023-06-04T09:52:16;37.70;24.20
9118;DHT22;4594;50.994;7.126;2023-06-04T09:54:43;37.70;24.50
9118;DHT22;4594;50.994;7.126;2023-06-04T09:57:16;37.90;24.50
9118;DHT22;4594;50.994;7.126;2023-06-04T09:59:44;38.00;24.10
9118;DHT22;4594;50.994;7.126;2023-06-04T10:02:12;38.10;24.40
9118;DHT22;4594;50.994;7.126;2023-06-04T10:04:42;38.20;24.40
9118;DHT22;4594;50.994;7.126;2023-06-04T10:07:09;38.20;24.20
9118;DHT22;4594;50.994;7.126;2023-06-04T10:09:39;38.20;24.30
9118;DHT22;4594;50.994;7.126;2023-06-04T10:12:13;38.20;24.00
9118;DHT22;4594;50.994;7.126;2023-06-04T10:15:02;38.20;24.00
9118;DHT22;4594;50.994;7.126;2023-06-04T10:17:32;38.20;23.60
9118;DHT22;4594;50.994;7.126;2023-06-04T10:20:00;38.10;23.80
9118;DHT22;4594;50.994;7.126;2023-06-04T10:22:29;38.00;23.70
9118;DHT22;4594;50.994;7.126;2023-06-04T10:24:56;37.80;23.80
9118;DHT22;4594;50.994;7.126;2023-06-04T10:27:23;37.70;23.80
9118;DHT22;4594;50.994;7.126;2023-06-04T10:29:50;37.60;23.70
9118;DHT22;4594;50.994;7.126;2023-06-04T10:32:16;37.60;23.80
9118;DHT22;4594;50.994;7.126;2023-06-04T10:34:42;37.60;23.80
9118;DHT22;4594;50.994;7.126;2023-06-04T10:37:21;37.60;23.70
9118;DHT22;4594;50.994;7.126;2023-06-04T10:39:58;37.60;24.00
9118;DHT22;4594;50.994;7.126;2023-06-04T10:42:24;37.70;23.80
9118;DHT22;4594;50.994;7.126;2023-06-04T10:44:55;37.80;24.00
9118;DHT22;4594;50.994;7.126;2023-06-04T10:49:51;38.00;23.90
9118;DHT22;4594;50.994;7.126;2023-06-04T10:52:18;38.10;23.90
9118;DHT22;4594;50.994;7.126;2023-06-04T10:54:45;38.10;23.80
9118;DHT22;4594;50.994;7.126;2023-06-04T10:57:17;38.20;23.80
9118;DHT22;4594;50.994;7.126;2023-06-04T10:59:54;38.20;24.00
9118;DHT22;4594;50.994;7.126;2023-06-04T11:02:20;38.20;23.60
9118;DHT22;4594;50.994;7.126;2023-06-04T11:04:46;38.30;23.80
9118;DHT22;4594;50.994;7.126;2023-06-04T11:07:12;38.40;23.90
9118;DHT22;4594;50.994;7.126;2023-06-04T11:09:48;38.60;24.00
9118;DHT22;4594;50.994;7.126;2023-06-04T11:12:15;38.70;23.50
9118;DHT22;4594;50.994;7.126;2023-06-04T11:14:41;38.70;23.80
9118;DHT22;4594;50.994;7.126;2023-06-04T11:17:10;38.70;23.70
9118;DHT22;4594;50.994;7.126;2023-06-04T11:19:37;38.60;23.60
9118;DHT22;4594;50.994;7.126;2023-06-04T11:22:04;38.60;23.80
9118;DHT22;4594;50.994;7.126;2023-06-04T11:24:32;38.50;23.80
9118;DHT22;4594;50.994;7.126;2023-06-04T11:26:58;38.40;23.70
9118;DHT22;4594;50.994;7.126;2023-06-04T11:29:28;38.40;23.60
9118;DHT22;4594;50.994;7.126;2023-06-04T11:31:54;38.30;23.60
9118;DHT22;4594;50.994;7.126;2023-06-04T11:34:30;38.10;23.60
9118;DHT22;4594;50.994;7.126;2023-06-04T11:37:10;37.90;23.60
9118;DHT22;4594;50.994;7.126;2023-06-04T11:39:36;37.70;23.30
9118;DHT22;4594;50.994;7.126;2023-06-04T11:42:05;37.50;23.40
9118;DHT22;4594;50.994;7.126;2023-06-04T11:44:32;37.10;23.20
9118;DHT22;4594;50.994;7.126;2023-06-04T11:46:58;36.80;23.00
9118;DHT22;4594;50.994;7.126;2023-06-04T11:49:25;36.40;22.90
9118;DHT22;4594;50.994;7.126;2023-06-04T11:51:52;35.90;22.80
9118;DHT22;4594;50.994;7.126;2023-06-04T11:54:20;35.40;22.70
9118;DHT22;4594;50.994;7.126;2023-06-04T11:56:49;34.90;22.70
9118;DHT22;4594;50.994;7.126;2023-06-04T11:59:17;34.40;22.60
9118;DHT22;4594;50.994;7.126;2023-06-04T12:01:44;34.00;22.60
9118;DHT22;4594;50.994;7.126;2023-06-04T12:04:15;33.50;22.60
9118;DHT22;4594;50.994;7.126;2023-06-04T12:07:11;33.10;22.50
9118;DHT22;4594;50.994;7.126;2023-06-04T12:09:37;32.80;22.60
9118;DHT22;4594;50.994;7.126;2023-06-04T12:12:07;32.40;22.50
9118;DHT22;4594;50.994;7.126;2023-06-04T12:14:33;32.20;22.50
9118;DHT22;4594;50.994;7.126;2023-06-04T12:17:01;31.90;22.60
9118;DHT22;4594;50.994;7.126;2023-06-04T12:19:44;31.60;22.50
9118;DHT22;4594;50.994;7.126;2023-06-04T12:22:13;31.30;22.40
9118;DHT22;4594;50.994;7.126;2023-06-04T12:24:50;30.90;22.60
9118;DHT22;4594;50.994;7.126;2023-06-04T12:27:25;30.70;22.50
9118;DHT22;4594;50.994;7.126;2023-06-04T12:29:58;30.30;22.50
9118;DHT22;4594;50.994;7.126;2023-06-04T12:32:29;30.00;22.60
9118;DHT22;4594;50.994;7.126;2023-06-04T12:34:55;29.80;22.60
9118;DHT22;4594;50.994;7.126;2023-06-04T12:37:24;29.50;22.70
9118;DHT22;4594;50.994;7.126;2023-06-04T12:39:51;29.40;22.80
9118;DHT22;4594;50.994;7.126;2023-06-04T12:42:18;29.20;22.80
9118;DHT22;4594;50.994;7.126;2023-06-04T12:44:45;29.10;22.90
9118;DHT22;4594;50.994;7.126;2023-06-04T12:47:10;29.00;22.90
9118;DHT22;4594;50.994;7.126;2023-06-04T12:49:37;28.90;22.90
9118;DHT22;4594;50.994;7.126;2023-06-04T12:52:03;28.80;22.90
9118;DHT22;4594;50.994;7.126;2023-06-04T12:54:31;28.70;22.80
9118;DHT22;4594;50.994;7.126;2023-06-04T12:56:58;28.50;22.80
9118;DHT22;4594;50.994;7.126;2023-06-04T12:59:25;28.40;22.80
9118;DHT22;4594;50.994;7.126;2023-06-04T13:01:55;28.30;22.80
9118;DHT22;4594;50.994;7.126;2023-06-04T13:04:21;28.20;22.80
9118;DHT22;4594;50.994;7.126;2023-06-04T13:06:49;28.00;22.80
9118;DHT22;4594;50.994;7.126;2023-06-04T13:09:15;27.90;22.80
9118;DHT22;4594;50.994;7.126;2023-06-04T13:11:42;27.70;22.80
9118;DHT22;4594;50.994;7.126;2023-06-04T13:14:09;27.60;23.00
9118;DHT22;4594;50.994;7.126;2023-06-04T13:16:35;27.50;23.10
9118;DHT22;4594;50.994;7.126;2023-06-04T13:19:03;27.40;23.10
9118;DHT22;4594;50.994;7.126;2023-06-04T13:21:29;27.30;23.20
9118;DHT22;4594;50.994;7.126;2023-06-04T13:23:55;27.30;23.30
9118;DHT22;4594;50.994;7.126;2023-06-04T13:26:22;27.20;23.30
9118;DHT22;4594;50.994;7.126;2023-06-04T13:28:48;27.10;23.30
9118;DHT22;4594;50.994;7.126;2023-06-04T13:31:14;27.10;23.40
9118;DHT22;4594;50.994;7.126;2023-06-04T13:33:39;27.10;23.40
9118;DHT22;4594;50.994;7.126;2023-06-04T13:36:06;27.10;23.50
9118;DHT22;4594;50.994;7.126;2023-06-04T13:38:32;27.10;23.50
9118;DHT22;4594;50.994;7.126;2023-06-04T13:40:59;27.10;23.60
9118;DHT22;4594;50.994;7.126;2023-06-04T13:43:25;27.10;23.70
9118;DHT22;4594;50.994;7.126;2023-06-04T13:45:51;27.10;23.70
9118;DHT22;4594;50.994;7.126;2023-06-04T13:48:17;27.10;23.80
9118;DHT22;4594;50.994;7.126;2023-06-04T13:50:43;27.10;23.80
9118;DHT22;4594;50.994;7.126;2023-06-04T13:53:09;27.10;23.90
9118;DHT22;4594;50.994;7.126;2023-06-04T13:55:35;27.10;24.00
9118;DHT22;4594;50.994;7.126;2023-06-04T13:58:00;27.10;24.10
9118;DHT22;4594;50.994;7.126;2023-06-04T14:00:26;27.10;24.00
9118;DHT22;4594;50.994;7.126;2023-06-04T14:02:53;27.10;24.00
9118;DHT22;4594;50.994;7.126;2023-06-04T14:05:20;27.00;24.00
9118;DHT22;4594;50.994;7.126;2023-06-04T14:07:47;27.00;24.10
9118;DHT22;4594;50.994;7.126;2023-06-04T14:10:13;27.00;24.20
9118;DHT22;4594;50.994;7.126;2023-06-04T14:12:39;27.00;24.20
9118;DHT22;4594;50.994;7.126;2023-06-04T14:15:09;27.00;24.30
9118;DHT22;4594;50.994;7.126;2023-06-04T14:17:39;27.00;24.30
9118;DHT22;4594;50.994;7.126;2023-06-04T14:20:06;26.90;24.20
9118;DHT22;4594;50.994;7.126;2023-06-04T14:22:36;27.00;24.20
9118;DHT22;4594;50.994;7.126;2023-06-04T14:25:07;26.90;24.30
9118;DHT22;4594;50.994;7.126;2023-06-04T14:27:34;26.90;24.40
9118;DHT22;4594;50.994;7.126;2023-06-04T14:30:04;26.90;24.30
9118;DHT22;4594;50.994;7.126;2023-06-04T14:32:30;26.90;24.50
9118;DHT22;4594;50.994;7.126;2023-06-04T14:34:57;26.80;24.50
9118;DHT22;4594;50.994;7.126;2023-06-04T14:37:23;26.80;24.40
9118;DHT22;4594;50.994;7.126;2023-06-04T14:39:48;26.90;24.50
9118;DHT22;4594;50.994;7.126;2023-06-04T14:42:15;26.80;24.50
9118;DHT22;4594;50.994;7.126;2023-06-04T14:44:41;26.80;24.60
9118;DHT22;4594;50.994;7.126;2023-06-04T14:47:06;26.80;24.50
9118;DHT22;4594;50.994;7.126;2023-06-04T14:49:32;26.80;24.60
9118;DHT22;4594;50.994;7.126;2023-06-04T14:51:58;26.80;24.70
9118;DHT22;4594;50.994;7.126;2023-06-04T14:54:23;26.80;24.60
9118;DHT22;4594;50.994;7.126;2023-06-04T14:56:49;26.80;24.60
9118;DHT22;4594;50.994;7.126;2023-06-04T14:59:15;26.80;24.60
9118;DHT22;4594;50.994;7.126;2023-06-04T15:01:41;26.80;24.70
9118;DHT22;4594;50.994;7.126;2023-06-04T15:04:08;26.80;24.70
9118;DHT22;4594;50.994;7.126;2023-06-04T15:06:34;26.80;24.70
9118;DHT22;4594;50.994;7.126;2023-06-04T15:09:00;26.80;24.80
9118;DHT22;4594;50.994;7.126;2023-06-04T15:11:26;26.80;24.70
9118;DHT22;4594;50.994;7.126;2023-06-04T15:13:53;26.70;24.70
9118;DHT22;4594;50.994;7.126;2023-06-04T15:16:19;26.70;24.70
9118;DHT22;4594;50.994;7.126;2023-06-04T15:18:45;26.70;24.80
9118;DHT22;4594;50.994;7.126;2023-06-04T15:21:11;26.70;24.80
9118;DHT22;4594;50.994;7.126;2023-06-04T15:23:37;26.70;24.80
9118;DHT22;4594;50.994;7.126;2023-06-04T15:26:02;26.60;24.80
9118;DHT22;4594;50.994;7.126;2023-06-04T15:28:28;26.70;24.90
9118;DHT22;4594;50.994;7.126;2023-06-04T15:30:54;26.60;24.80
9118;DHT22;4594;50.994;7.126;2023-06-04T15:33:20;26.60;24.90
9118;DHT22;4594;50.994;7.126;2023-06-04T15:35:45;26.50;24.90
9118;DHT22;4594;50.994;7.126;2023-06-04T15:38:11;26.50;24.90
9118;DHT22;4594;50.994;7.126;2023-06-04T15:40:37;26.50;24.90
9118;DHT22;4594;50.994;7.126;2023-06-04T15:43:02;26.50;25.00
9118;DHT22;4594;50.994;7.126;2023-06-04T15:45:28;26.50;25.00
9118;DHT22;4594;50.994;7.126;2023-06-04T15:47:54;26.60;25.00
9118;DHT22;4594;50.994;7.126;2023-06-04T15:50:19;26.50;25.00
9118;DHT22;4594;50.994;7.126;2023-06-04T15:52:45;26.40;25.00
9118;DHT22;4594;50.994;7.126;2023-06-04T15:55:12;26.40;24.90
9118;DHT22;4594;50.994;7.126;2023-06-04T15:57:38;26.40;25.00
9118;DHT22;4594;50.994;7.126;2023-06-04T16:00:05;26.40;24.90
9118;DHT22;4594;50.994;7.126;2023-06-04T16:02:31;26.30;24.80
9118;DHT22;4594;50.994;7.126;2023-06-04T16:04:56;26.30;24.90
9118;DHT22;4594;50.994;7.126;2023-06-04T16:07:22;26.20;24.80
9118;DHT22;4594;50.994;7.126;2023-06-04T16:09:48;26.20;24.90
9118;DHT22;4594;50.994;7.126;2023-06-04T16:12:14;26.20;24.90